createdAt,value
2023-02-15T00:01:43.463Z,4.21
2023-02-15T00:04:10.958Z,4.25
2023-02-15T00:06:37.607Z,3.76
2023-02-15T00:09:05.006Z,3.68
2023-02-15T00:11:40.719Z,3.72
2023-02-15T00:14:21.542Z,3.83
2023-02-15T00:16:50.260Z,4.07
2023-02-15T00:19:19.684Z,4.29
2023-02-15T00:21:47.226Z,4.51
2023-02-15T00:24:15.660Z,4.44
2023-02-15T00:26:43.758Z,4.10
2023-02-15T00:29:11.852Z,4.36
2023-02-15T00:31:39.093Z,4.16
2023-02-15T00:34:08.578Z,4.16
2023-02-15T00:36:35.429Z,4.39
2023-02-15T00:39:02.089Z,4.29
2023-02-15T00:41:28.664Z,4.28
2023-02-15T00:43:55.291Z,4.68
2023-02-15T00:46:21.944Z,4.77
2023-02-15T00:48:48.695Z,3.77
2023-02-15T00:51:15.416Z,4.20
2023-02-15T00:53:42.075Z,4.20
2023-02-15T00:56:08.692Z,4.14
2023-02-15T00:58:35.300Z,3.65
2023-02-15T01:01:07.691Z,3.88
2023-02-15T01:03:35.075Z,4.15
2023-02-15T01:06:03.922Z,4.28
2023-02-15T01:08:31.242Z,4.20
2023-02-15T01:10:58.249Z,3.83
2023-02-15T01:13:24.930Z,4.14
2023-02-15T01:15:55.906Z,4.57
2023-02-15T01:18:23.242Z,4.54
2023-02-15T01:20:50.305Z,4.64
2023-02-15T01:23:17.047Z,4.23
2023-02-15T01:25:43.700Z,4.01
2023-02-15T01:28:10.426Z,3.94
2023-02-15T01:30:37.258Z,4.71
2023-02-15T01:33:03.914Z,4.45
2023-02-15T01:35:30.820Z,3.99
2023-02-15T01:37:58.158Z,4.27
2023-02-15T01:40:25.735Z,3.84
2023-02-15T01:42:54.527Z,4.73
2023-02-15T01:45:29.942Z,4.10
2023-02-15T01:48:06.986Z,4.13
2023-02-15T01:50:44.182Z,4.41
2023-02-15T01:53:19.745Z,4.82
2023-02-15T01:56:00.633Z,4.05
2023-02-15T01:58:30.243Z,4.14
2023-02-15T02:01:01.306Z,4.65
2023-02-15T02:03:59.962Z,4.22
2023-02-15T02:06:27.703Z,3.67
2023-02-15T02:08:55.776Z,3.80
2023-02-15T02:11:23.060Z,4.05
2023-02-15T02:13:52.365Z,4.08
2023-02-15T02:16:41.301Z,3.92
2023-02-15T02:19:28.900Z,4.11
2023-02-15T02:22:30.939Z,4.22
2023-02-15T02:25:07.453Z,4.34
2023-02-15T02:27:50.549Z,4.05
2023-02-15T02:30:17.171Z,3.84
2023-02-15T02:33:09.117Z,3.98
2023-02-15T02:35:41.554Z,4.68
2023-02-15T02:38:43.858Z,4.52
2023-02-15T02:41:33.468Z,4.23
2023-02-15T02:44:19.612Z,4.34
2023-02-15T02:47:07.983Z,4.49
2023-02-15T02:49:40.072Z,5.00
2023-02-15T02:52:44.118Z,4.30
2023-02-15T02:55:21.927Z,4.65
2023-02-15T02:58:01.457Z,4.64
2023-02-15T03:00:32.605Z,4.32
2023-02-15T03:03:06.402Z,4.16
2023-02-15T03:05:38.005Z,4.05
2023-02-15T03:08:07.128Z,4.09
2023-02-15T03:10:36.009Z,3.62
2023-02-15T03:13:03.352Z,4.31
2023-02-15T03:15:57.595Z,4.01
2023-02-15T03:18:29.833Z,4.34
2023-02-15T03:20:56.905Z,4.12
2023-02-15T03:23:26.666Z,3.93
2023-02-15T03:26:01.376Z,4.03
2023-02-15T03:28:34.266Z,4.18
2023-02-15T03:31:05.710Z,3.77
2023-02-15T03:33:33.588Z,4.33
2023-02-15T03:36:20.125Z,4.19
2023-02-15T03:39:08.624Z,3.62
2023-02-15T03:41:42.900Z,3.76
2023-02-15T03:44:19.450Z,4.02
2023-02-15T03:47:01.220Z,4.11
2023-02-15T03:49:59.558Z,3.97
2023-02-15T03:52:29.644Z,3.63
2023-02-15T03:54:56.901Z,3.75
2023-02-15T03:57:44.989Z,4.06
2023-02-15T04:00:44.446Z,3.80
2023-02-15T04:03:30.938Z,3.93
2023-02-15T04:05:57.627Z,4.15
2023-02-15T04:08:44.225Z,3.66
2023-02-15T04:11:10.917Z,4.00
2023-02-15T04:13:37.532Z,4.18
2023-02-15T04:16:05.247Z,4.05
2023-02-15T04:18:53.687Z,4.23
2023-02-15T04:21:40.222Z,3.69
2023-02-15T04:24:25.519Z,4.30
2023-02-15T04:26:55.407Z,4.18
2023-02-15T04:29:24.082Z,4.08
2023-02-15T04:31:52.394Z,3.91
2023-02-15T04:34:19.247Z,3.51
2023-02-15T04:36:45.969Z,3.78
2023-02-15T04:39:16.825Z,4.18
2023-02-15T04:41:44.174Z,5.01
2023-02-15T04:44:11.296Z,4.12
2023-02-15T04:46:38.363Z,3.94
2023-02-15T04:49:05.032Z,4.05
2023-02-15T04:51:32.842Z,3.74
2023-02-15T04:53:59.449Z,4.65
2023-02-15T04:56:26.124Z,4.42
2023-02-15T04:58:52.710Z,3.98
2023-02-15T05:01:20.047Z,4.17
2023-02-15T05:03:46.674Z,3.90
2023-02-15T05:06:13.353Z,4.05
2023-02-15T05:08:39.957Z,3.72
2023-02-15T05:11:06.566Z,3.30
2023-02-15T05:13:33.183Z,4.04
2023-02-15T05:16:00.048Z,3.94
2023-02-15T05:18:26.870Z,4.19
2023-02-15T05:20:53.550Z,4.03
2023-02-15T05:23:20.142Z,4.10
2023-02-15T05:26:09.315Z,3.75
2023-02-15T05:28:37.303Z,3.54
2023-02-15T05:31:08.093Z,4.05
2023-02-15T05:33:35.943Z,4.26
2023-02-15T05:36:03.759Z,4.29
2023-02-15T05:38:31.536Z,4.06
2023-02-15T05:40:59.219Z,3.97
2023-02-15T05:43:26.269Z,4.13
2023-02-15T05:45:55.285Z,4.38
2023-02-15T05:48:24.571Z,4.10
2023-02-15T05:51:01.620Z,4.10
2023-02-15T05:53:29.466Z,4.22
2023-02-15T05:56:00.533Z,3.96
2023-02-15T05:58:28.815Z,4.44
2023-02-15T06:00:55.866Z,4.20
2023-02-15T06:03:23.929Z,4.29
2023-02-15T06:05:50.681Z,4.55
2023-02-15T06:08:17.283Z,4.25
2023-02-15T06:10:43.927Z,3.92
2023-02-15T06:13:10.501Z,4.10
2023-02-15T06:15:37.160Z,4.05
2023-02-15T06:18:04.169Z,3.80
2023-02-15T06:20:30.873Z,4.20
2023-02-15T06:22:57.485Z,4.38
2023-02-15T06:25:25.542Z,4.34
2023-02-15T06:27:52.230Z,3.94
2023-02-15T06:30:19.029Z,4.21
2023-02-15T06:32:45.700Z,4.12
2023-02-15T06:35:12.625Z,4.12
2023-02-15T06:37:39.791Z,3.93
2023-02-15T06:40:07.540Z,4.28
2023-02-15T06:42:34.233Z,4.37
2023-02-15T06:45:01.836Z,3.91
2023-02-15T06:47:28.415Z,4.47
2023-02-15T06:49:55.099Z,4.01
2023-02-15T06:52:21.706Z,4.34
2023-02-15T06:54:48.303Z,4.25
2023-02-15T06:57:15.001Z,3.94
2023-02-15T06:59:41.693Z,4.51
2023-02-15T07:02:10.422Z,4.43
2023-02-15T07:04:37.069Z,4.26
2023-02-15T07:07:04.216Z,4.62
2023-02-15T07:09:30.988Z,4.29
2023-02-15T07:12:16.084Z,4.25
2023-02-15T07:14:42.800Z,4.97
2023-02-15T07:17:32.652Z,5.03
2023-02-15T07:19:56.217Z,4.76
2023-02-15T07:22:23.030Z,4.58
2023-02-15T07:24:50.189Z,4.63
2023-02-15T07:27:17.235Z,4.64
2023-02-15T07:29:43.858Z,4.21
2023-02-15T07:32:10.522Z,4.77
2023-02-15T07:34:37.267Z,4.87
2023-02-15T07:37:03.937Z,4.78
2023-02-15T07:39:30.687Z,4.26
2023-02-15T07:41:57.286Z,4.66
2023-02-15T07:44:23.910Z,4.98
2023-02-15T07:46:50.651Z,4.53
2023-02-15T07:49:17.498Z,4.43
2023-02-15T07:51:44.161Z,5.19
2023-02-15T07:54:10.722Z,4.85
2023-02-15T07:56:37.387Z,4.42
2023-02-15T07:59:06.102Z,4.71
2023-02-15T08:01:37.773Z,4.46
2023-02-15T08:04:06.620Z,4.69
2023-02-15T08:06:35.796Z,4.73
2023-02-15T08:09:06.435Z,5.01
2023-02-15T08:11:38.633Z,4.65
2023-02-15T08:14:07.753Z,5.10
2023-02-15T08:16:34.478Z,5.28
2023-02-15T08:19:04.432Z,4.76
2023-02-15T08:21:32.509Z,4.93
2023-02-15T08:23:59.683Z,4.45
2023-02-15T08:26:28.422Z,4.69
2023-02-15T08:28:55.169Z,4.61
2023-02-15T08:31:22.091Z,4.87
2023-02-15T08:33:51.750Z,4.95
2023-02-15T08:36:21.192Z,4.76
2023-02-15T08:38:48.106Z,4.53
2023-02-15T08:41:26.624Z,4.36
2023-02-15T08:43:58.031Z,4.70
2023-02-15T08:46:27.823Z,4.94
2023-02-15T08:48:54.455Z,5.00
2023-02-15T08:51:33.163Z,5.47
2023-02-15T08:54:02.324Z,5.29
2023-02-15T08:56:31.185Z,5.27
2023-02-15T08:58:57.868Z,5.43
2023-02-15T09:01:30.603Z,5.11
2023-02-15T09:04:03.295Z,4.76
2023-02-15T09:06:30.225Z,5.11
2023-02-15T09:08:57.661Z,4.85
2023-02-15T09:11:33.876Z,5.32
2023-02-15T09:14:03.146Z,5.40
2023-02-15T09:16:32.268Z,5.31
2023-02-15T09:18:59.705Z,5.48
2023-02-15T09:21:28.996Z,5.36
2023-02-15T09:24:04.407Z,5.14
2023-02-15T09:26:32.780Z,5.58
2023-02-15T09:29:02.064Z,6.01
2023-02-15T09:31:31.885Z,5.50
2023-02-15T09:34:02.653Z,5.75
2023-02-15T09:36:37.771Z,6.08
2023-02-15T09:39:12.575Z,5.55
2023-02-15T09:41:56.464Z,5.32
2023-02-15T09:44:52.842Z,5.35
2023-02-15T09:47:49.893Z,5.16
2023-02-15T09:50:51.907Z,5.41
2023-02-15T09:53:48.900Z,5.53
2023-02-15T09:56:38.477Z,5.90
2023-02-15T09:59:50.934Z,6.17
2023-02-15T10:02:44.812Z,5.25
2023-02-15T10:05:34.612Z,5.45
2023-02-15T10:08:03.840Z,5.64
2023-02-15T10:10:33.303Z,5.58
2023-02-15T10:13:18.761Z,6.08
2023-02-15T10:15:52.596Z,5.52
2023-02-15T10:18:34.301Z,5.65
2023-02-15T10:21:24.273Z,5.57
2023-02-15T10:24:03.561Z,5.86
2023-02-15T10:26:42.304Z,5.74
2023-02-15T10:29:21.439Z,6.03
2023-02-15T10:31:51.986Z,6.33
2023-02-15T10:34:38.250Z,5.71
2023-02-15T10:37:16.766Z,5.73
2023-02-15T10:40:04.030Z,5.41
2023-02-15T10:43:05.458Z,6.05
2023-02-15T10:46:09.384Z,6.52
2023-02-15T10:48:46.078Z,6.11
2023-02-15T10:51:23.986Z,5.70
2023-02-15T10:54:05.851Z,6.47
2023-02-15T10:56:41.388Z,6.74
2023-02-15T10:59:38.756Z,6.54
2023-02-15T11:02:44.385Z,6.07
2023-02-15T11:05:38.632Z,5.91
2023-02-15T11:08:09.107Z,6.20
2023-02-15T11:11:07.682Z,6.90
2023-02-15T11:13:40.378Z,7.09
2023-02-15T11:16:18.615Z,6.76
2023-02-15T11:18:56.572Z,6.57
2023-02-15T11:21:46.744Z,6.46
2023-02-15T11:24:19.234Z,6.44
2023-02-15T11:26:51.900Z,6.22
2023-02-15T11:29:57.058Z,6.05
2023-02-15T11:32:31.447Z,5.99
2023-02-15T11:35:06.744Z,6.14
2023-02-15T11:37:47.387Z,6.14
2023-02-15T11:40:36.586Z,6.15
2023-02-15T11:43:12.646Z,5.78
2023-02-15T11:45:43.665Z,5.99
2023-02-15T11:48:13.020Z,5.88
2023-02-15T11:50:40.062Z,5.89
2023-02-15T11:53:28.639Z,5.92
2023-02-15T11:55:56.577Z,5.65
2023-02-15T11:58:37.979Z,5.70
2023-02-15T12:01:17.159Z,6.07
2023-02-15T12:03:48.481Z,6.13
2023-02-15T12:06:18.246Z,6.46
2023-02-15T12:08:53.407Z,6.31
2023-02-15T12:11:27.714Z,6.16
2023-02-15T12:13:59.180Z,5.85
2023-02-15T12:16:28.097Z,6.05
2023-02-15T12:18:57.821Z,6.74
2023-02-15T12:21:34.605Z,6.76
2023-02-15T12:24:19.006Z,6.19
2023-02-15T12:26:56.480Z,6.54
2023-02-15T12:29:27.577Z,6.56
2023-02-15T12:31:54.941Z,6.66
2023-02-15T12:34:40.598Z,6.12
2023-02-15T12:37:17.712Z,6.49
2023-02-15T12:39:57.033Z,6.14
2023-02-15T12:42:25.430Z,6.55
2023-02-15T12:45:02.255Z,6.34
2023-02-15T12:47:31.613Z,6.71
2023-02-15T12:50:17.804Z,7.19
2023-02-15T12:52:48.676Z,6.69
2023-02-15T12:55:24.212Z,6.79
2023-02-15T12:58:06.906Z,6.57
2023-02-15T13:00:33.750Z,6.42
2023-02-15T13:03:02.349Z,6.35
2023-02-15T13:05:44.197Z,6.46
2023-02-15T13:08:21.795Z,7.18
2023-02-15T13:11:04.791Z,6.57
2023-02-15T13:13:37.526Z,6.74
2023-02-15T13:16:10.890Z,6.90
2023-02-15T13:18:48.115Z,7.19
2023-02-15T13:21:23.369Z,6.91
2023-02-15T13:23:58.061Z,7.29
2023-02-15T13:26:27.751Z,6.78
2023-02-15T13:28:59.371Z,7.06
2023-02-15T13:31:33.313Z,7.05
2023-02-15T13:34:10.674Z,6.90
2023-02-15T13:37:03.979Z,7.35
2023-02-15T13:39:36.401Z,7.05
2023-02-15T13:42:26.018Z,7.35
2023-02-15T13:44:52.588Z,7.03
2023-02-15T13:48:00.141Z,6.83
2023-02-15T13:50:45.434Z,6.63
2023-02-15T13:53:36.500Z,6.88
2023-02-15T13:56:25.850Z,7.05
2023-02-15T13:59:19.923Z,6.76
2023-02-15T14:02:02.212Z,6.82
2023-02-15T14:04:34.804Z,6.65
2023-02-15T14:07:24.242Z,6.34
2023-02-15T14:10:00.842Z,6.51
2023-02-15T14:13:14.864Z,6.41
2023-02-15T14:15:50.118Z,6.25
2023-02-15T14:18:31.546Z,6.94
2023-02-15T14:21:04.704Z,7.03
2023-02-15T14:24:09.177Z,6.59
2023-02-15T14:27:02.356Z,5.84
2023-02-15T14:29:34.639Z,6.04
2023-02-15T14:32:09.107Z,6.39
2023-02-15T14:34:56.193Z,6.31
2023-02-15T14:37:45.816Z,5.91
2023-02-15T14:40:54.734Z,6.09
2023-02-15T14:43:35.044Z,6.70
2023-02-15T14:46:13.338Z,6.85
2023-02-15T14:48:46.357Z,6.54
2023-02-15T14:51:44.842Z,5.71
2023-02-15T14:54:34.224Z,5.97
2023-02-15T14:57:03.542Z,6.12
2023-02-15T14:59:44.751Z,6.31
2023-02-15T15:02:18.877Z,6.20
2023-02-15T15:04:54.292Z,5.48
2023-02-15T15:07:42.354Z,6.00
2023-02-15T15:10:18.011Z,6.25
2023-02-15T15:12:49.592Z,6.28
2023-02-15T15:15:28.075Z,6.52
2023-02-15T15:17:56.561Z,6.42
2023-02-15T15:20:34.956Z,6.19
2023-02-15T15:23:16.722Z,6.17
2023-02-15T15:25:55.330Z,5.67
2023-02-15T15:28:33.915Z,5.23
2023-02-15T15:31:16.586Z,5.70
2023-02-15T15:33:46.223Z,5.53
2023-02-15T15:36:18.776Z,5.43
2023-02-15T15:39:03.060Z,5.41
2023-02-15T15:41:54.296Z,5.32
2023-02-15T15:44:23.966Z,5.15
2023-02-15T15:47:10.557Z,5.63
2023-02-15T15:49:39.708Z,5.55
2023-02-15T15:52:17.570Z,5.59
2023-02-15T15:54:46.898Z,5.73
2023-02-15T15:57:23.053Z,5.56
2023-02-15T15:59:50.422Z,5.74
2023-02-15T16:02:18.801Z,5.66
2023-02-15T16:04:48.117Z,5.65
2023-02-15T16:07:17.434Z,5.87
2023-02-15T16:09:55.931Z,5.97
2023-02-15T16:12:23.882Z,5.29
2023-02-15T16:14:52.761Z,5.48
2023-02-15T16:17:23.543Z,5.73
2023-02-15T16:19:51.893Z,5.05
2023-02-15T16:22:30.032Z,5.66
2023-02-15T16:25:17.254Z,5.79
2023-02-15T16:27:45.639Z,5.37
2023-02-15T16:30:31.827Z,5.57
2023-02-15T16:33:09.114Z,5.21
2023-02-15T16:35:41.035Z,5.44
2023-02-15T16:38:11.867Z,5.43
2023-02-15T16:40:49.634Z,5.77
2023-02-15T16:43:21.427Z,5.69
2023-02-15T16:45:48.721Z,4.93
2023-02-15T16:48:22.740Z,4.99
2023-02-15T16:50:53.157Z,5.10
2023-02-15T16:53:26.394Z,5.67
2023-02-15T16:56:05.424Z,5.44
2023-02-15T16:58:51.039Z,5.22
2023-02-15T17:01:22.607Z,5.56
2023-02-15T17:03:51.348Z,5.50
2023-02-15T17:06:27.801Z,5.19
2023-02-15T17:09:04.958Z,4.51
2023-02-15T17:11:42.332Z,4.71
2023-02-15T17:14:11.451Z,4.95
2023-02-15T17:16:50.229Z,5.11
2023-02-15T17:19:26.634Z,4.82
2023-02-15T17:21:57.172Z,5.18
2023-02-15T17:24:44.068Z,4.69
2023-02-15T17:27:24.747Z,5.13
2023-02-15T17:29:56.233Z,5.45
2023-02-15T17:32:26.242Z,5.41
2023-02-15T17:35:22.546Z,5.04
2023-02-15T17:37:50.470Z,4.87
2023-02-15T17:40:36.386Z,4.83
2023-02-15T17:43:03.428Z,4.62
2023-02-15T17:45:36.211Z,4.55
2023-02-15T17:48:06.295Z,4.30
2023-02-15T17:50:34.172Z,4.02
2023-02-15T17:53:02.094Z,3.96
2023-02-15T17:55:41.391Z,4.08
2023-02-15T17:58:13.935Z,4.00
2023-02-15T18:01:03.930Z,4.20
2023-02-15T18:03:55.268Z,4.14
2023-02-15T18:06:40.783Z,4.12
2023-02-15T18:09:30.097Z,4.77
2023-02-15T18:11:57.203Z,4.89
2023-02-15T18:14:23.883Z,4.34
2023-02-15T18:16:50.883Z,4.46
2023-02-15T18:19:21.622Z,4.40
2023-02-15T18:21:49.033Z,4.67
2023-02-15T18:24:21.318Z,4.87
2023-02-15T18:26:48.429Z,4.65
2023-02-15T18:29:15.155Z,5.00
2023-02-15T18:31:42.718Z,5.04
2023-02-15T18:34:24.020Z,5.13
2023-02-15T18:36:51.856Z,5.14
2023-02-15T18:39:36.452Z,5.51
2023-02-15T18:42:03.818Z,5.68
2023-02-15T18:44:30.557Z,5.78
2023-02-15T18:46:57.180Z,5.14
2023-02-15T18:49:23.858Z,5.38
2023-02-15T18:51:50.964Z,5.81
2023-02-15T18:54:21.322Z,5.69
2023-02-15T18:57:00.877Z,6.00
2023-02-15T19:02:20.857Z,5.36
2023-02-15T19:04:47.681Z,5.43
2023-02-15T19:07:29.895Z,5.43
2023-02-15T19:10:00.435Z,5.36
2023-02-15T19:12:28.526Z,5.67
2023-02-15T19:14:56.809Z,4.86
2023-02-15T19:17:25.608Z,4.95
2023-02-15T19:19:53.301Z,4.64
2023-02-15T19:22:34.176Z,4.94
2023-02-15T19:25:04.972Z,4.81
2023-02-15T19:27:35.900Z,5.20
2023-02-15T19:30:17.656Z,5.16
2023-02-15T19:32:45.359Z,4.76
2023-02-15T19:35:21.924Z,4.95
2023-02-15T19:37:51.698Z,4.56
2023-02-15T19:40:28.151Z,4.69
2023-02-15T19:42:55.335Z,4.81
2023-02-15T19:45:25.034Z,5.13
2023-02-15T19:47:53.990Z,4.90
2023-02-15T19:50:28.281Z,5.20
2023-02-15T19:52:55.068Z,5.55
2023-02-15T19:55:29.923Z,5.52
2023-02-15T19:57:58.505Z,5.39
2023-02-15T20:00:30.781Z,5.24
2023-02-15T20:03:00.289Z,5.52
2023-02-15T20:05:31.916Z,5.32
2023-02-15T20:07:58.813Z,5.22
2023-02-15T20:10:29.203Z,5.13
2023-02-15T20:12:56.127Z,5.48
2023-02-15T20:15:32.219Z,5.12
2023-02-15T20:18:02.803Z,5.29
2023-02-15T20:20:37.671Z,5.06
2023-02-15T20:23:04.576Z,5.09
2023-02-15T20:25:34.037Z,5.41
2023-02-15T20:28:02.051Z,4.99
2023-02-15T20:30:31.968Z,5.12
2023-02-15T20:32:59.186Z,4.61
2023-02-15T20:35:28.903Z,4.58
2023-02-15T20:37:59.617Z,4.85
2023-02-15T20:40:33.567Z,4.59
2023-02-15T20:43:02.104Z,5.08
2023-02-15T20:45:35.528Z,5.33
2023-02-15T20:48:03.799Z,5.22
2023-02-15T20:50:32.462Z,4.93
2023-02-15T20:53:00.888Z,5.14
2023-02-15T20:55:30.637Z,4.97
2023-02-15T20:57:58.950Z,5.16
2023-02-15T21:00:28.403Z,5.28
2023-02-15T21:02:58.306Z,5.40
2023-02-15T21:05:30.924Z,5.52
2023-02-15T21:07:57.876Z,5.40
2023-02-15T21:10:28.328Z,4.83
2023-02-15T21:12:55.702Z,4.90
2023-02-15T21:15:33.799Z,5.32
2023-02-15T21:18:03.790Z,5.51
2023-02-15T21:20:32.073Z,5.80
2023-02-15T21:23:03.237Z,6.08
2023-02-15T21:25:37.193Z,5.91
2023-02-15T21:28:05.081Z,6.05
2023-02-15T21:30:32.145Z,5.99
2023-02-15T21:32:58.865Z,5.93
2023-02-15T21:35:25.737Z,5.69
2023-02-15T21:37:53.385Z,5.73
2023-02-15T21:40:25.693Z,5.53
2023-02-15T21:43:10.562Z,5.23
2023-02-15T21:45:55.450Z,5.38
2023-02-15T21:48:22.885Z,5.69
2023-02-15T21:51:09.353Z,5.65
2023-02-15T21:53:42.542Z,4.06
2023-02-15T21:56:11.687Z,4.87
2023-02-15T21:58:38.254Z,5.21
2023-02-15T22:01:05.962Z,5.03
2023-02-15T22:03:36.287Z,5.26
2023-02-15T22:06:04.558Z,5.31
2023-02-15T22:08:31.631Z,5.22
2023-02-15T22:10:58.362Z,5.30
2023-02-15T22:13:28.346Z,4.86
2023-02-15T22:15:56.089Z,5.12
2023-02-15T22:18:32.263Z,5.09
2023-02-15T22:21:00.215Z,5.21
2023-02-15T22:23:26.789Z,5.05
2023-02-15T22:25:58.494Z,5.01
2023-02-15T22:28:33.785Z,5.12
2023-02-15T22:31:01.253Z,3.54
2023-02-15T22:33:33.396Z,3.94
2023-02-15T22:36:01.095Z,4.48
2023-02-15T22:38:27.934Z,4.85
2023-02-15T22:40:58.144Z,4.62
2023-02-15T22:43:30.042Z,4.48
2023-02-15T22:46:02.390Z,4.61
2023-02-15T22:48:29.433Z,4.71
2023-02-15T22:50:56.045Z,4.98
2023-02-15T22:53:22.909Z,5.02
2023-02-15T22:55:50.031Z,4.74
2023-02-15T22:58:20.836Z,4.49
2023-02-15T23:00:47.505Z,4.90
2023-02-15T23:03:20.874Z,4.82
2023-02-15T23:05:48.040Z,5.06
2023-02-15T23:08:15.233Z,4.66
2023-02-15T23:10:43.593Z,4.88
2023-02-15T23:13:25.961Z,4.87
2023-02-15T23:15:58.769Z,5.03
2023-02-15T23:18:49.324Z,4.85
2023-02-15T23:21:26.035Z,4.98
2023-02-15T23:23:57.577Z,4.83
2023-02-15T23:26:29.867Z,5.05
2023-02-15T23:28:58.970Z,5.03
2023-02-15T23:31:32.081Z,4.90
2023-02-15T23:34:01.444Z,4.79
2023-02-15T23:36:37.163Z,4.64
2023-02-15T23:39:43.880Z,4.51
2023-02-15T23:42:32.631Z,4.74
2023-02-15T23:44:59.327Z,4.85
2023-02-15T23:47:49.009Z,4.80
2023-02-15T23:50:30.181Z,4.71
2023-02-15T23:52:57.543Z,4.87
2023-02-15T23:55:31.148Z,4.68
2023-02-15T23:57:57.806Z,4.71
